createdAt,value
2019-05-16T00:00:19.124Z,0.00
2019-05-16T00:01:19.332Z,0.00
2019-05-16T00:02:18.556Z,0.00
2019-05-16T00:03:18.670Z,0.00
2019-05-16T00:04:17.822Z,0.00
2019-05-16T00:05:18.635Z,0.00
2019-05-16T00:06:17.937Z,0.00
2019-05-16T00:07:19.081Z,0.00
2019-05-16T00:08:17.856Z,0.00
2019-05-16T00:09:18.321Z,0.00
2019-05-16T00:10:18.675Z,0.00
2019-05-16T00:11:17.971Z,0.00
2019-05-16T00:12:18.430Z,0.00
2019-05-16T00:13:18.588Z,0.00
2019-05-16T00:14:18.710Z,0.00
2019-05-16T00:15:18.252Z,0.00
2019-05-16T00:16:18.684Z,0.00
2019-05-16T00:17:18.701Z,0.00
2019-05-16T00:18:17.802Z,0.00
2019-05-16T00:19:18.118Z,0.00
2019-05-16T00:20:18.857Z,0.00
2019-05-16T00:21:17.919Z,0.00
2019-05-16T00:22:18.143Z,0.00
2019-05-16T00:23:18.270Z,0.00
2019-05-16T00:24:18.528Z,0.00
2019-05-16T00:25:17.964Z,0.00
2019-05-16T00:26:16.565Z,0.00
2019-05-16T00:27:18.450Z,0.00
2019-05-16T00:28:18.023Z,0.00
2019-05-16T00:29:18.417Z,0.00
2019-05-16T00:30:18.111Z,0.00
2019-05-16T00:31:18.316Z,0.00
2019-05-16T00:32:18.938Z,0.00
2019-05-16T00:33:18.335Z,0.00
2019-05-16T00:34:18.746Z,0.00
2019-05-16T00:35:18.436Z,0.00
2019-05-16T00:36:18.684Z,0.00
2019-05-16T00:37:18.347Z,0.00
2019-05-16T00:38:18.269Z,0.00
2019-05-16T00:39:18.634Z,0.00
2019-05-16T00:40:18.582Z,0.00
2019-05-16T00:41:18.345Z,0.00
2019-05-16T00:42:18.043Z,0.00
2019-05-16T00:43:18.289Z,0.00
2019-05-16T00:44:18.801Z,0.00
2019-05-16T00:45:18.518Z,0.00
2019-05-16T00:46:16.399Z,0.00
2019-05-16T00:47:17.851Z,0.00
2019-05-16T00:48:18.187Z,0.00
2019-05-16T00:49:18.573Z,0.00
2019-05-16T00:50:18.223Z,0.00
2019-05-16T00:51:18.338Z,0.00
2019-05-16T00:52:18.323Z,0.00
2019-05-16T00:53:18.225Z,0.00
2019-05-16T00:54:18.459Z,0.00
2019-05-16T00:55:17.944Z,0.00
2019-05-16T00:56:18.366Z,0.00
2019-05-16T00:57:18.648Z,0.00
2019-05-16T00:58:18.808Z,0.00
2019-05-16T00:59:18.252Z,0.00
2019-05-16T01:00:18.161Z,0.00
2019-05-16T01:01:18.759Z,0.00
2019-05-16T01:02:18.256Z,0.00
2019-05-16T01:03:16.248Z,0.00
2019-05-16T01:04:18.171Z,0.00
2019-05-16T01:05:18.882Z,0.00
2019-05-16T01:06:21.904Z,0.00
2019-05-16T01:07:18.537Z,0.00
2019-05-16T01:08:18.619Z,0.00
2019-05-16T01:09:16.197Z,0.00
2019-05-16T01:10:18.127Z,0.00
2019-05-16T01:11:18.346Z,0.00
2019-05-16T01:12:17.832Z,0.00
2019-05-16T01:13:18.393Z,0.00
2019-05-16T01:14:17.715Z,0.00
2019-05-16T01:15:18.190Z,0.00
2019-05-16T01:16:18.533Z,0.00
2019-05-16T01:17:18.115Z,0.00
2019-05-16T01:18:18.473Z,0.00
2019-05-16T01:19:16.117Z,0.00
2019-05-16T01:20:16.105Z,0.00
2019-05-16T01:21:18.371Z,0.00
2019-05-16T01:22:18.541Z,0.00
2019-05-16T01:23:18.127Z,0.00
2019-05-16T01:24:16.075Z,0.00
2019-05-16T01:25:16.065Z,0.00
2019-05-16T01:26:18.373Z,0.00
2019-05-16T01:27:18.357Z,0.00
2019-05-16T01:28:18.164Z,0.00
2019-05-16T01:29:16.029Z,0.00
2019-05-16T01:30:18.446Z,0.00
2019-05-16T01:31:16.012Z,0.00
2019-05-16T01:32:16.013Z,0.00
2019-05-16T01:33:16.000Z,0.00
2019-05-16T01:34:18.038Z,0.00
2019-05-16T01:35:18.841Z,0.00
2019-05-16T01:36:19.361Z,0.00
2019-05-16T01:37:15.964Z,0.00
2019-05-16T01:38:17.901Z,0.00
2019-05-16T01:39:18.156Z,0.00
2019-05-16T01:40:15.940Z,0.00
2019-05-16T01:41:17.862Z,0.00
2019-05-16T01:42:15.921Z,0.00
2019-05-16T01:43:17.878Z,0.00
2019-05-16T01:44:18.182Z,0.00
2019-05-16T01:45:15.903Z,0.00
2019-05-16T01:46:17.850Z,0.00
2019-05-16T01:47:18.148Z,0.00
2019-05-16T01:48:15.877Z,0.00
2019-05-16T01:49:15.865Z,0.00
2019-05-16T01:50:17.883Z,0.00
2019-05-16T01:51:18.212Z,0.00
2019-05-16T01:52:17.775Z,0.00
2019-05-16T01:53:17.857Z,0.00
2019-05-16T01:54:17.886Z,0.00
2019-05-16T01:55:15.814Z,0.00
2019-05-16T01:56:17.815Z,0.00
2019-05-16T01:57:17.910Z,0.00
2019-05-16T01:58:15.795Z,0.00
2019-05-16T01:59:18.008Z,0.00
2019-05-16T02:00:23.245Z,0.00
2019-05-16T02:01:16.015Z,0.00
2019-05-16T02:02:15.756Z,0.00
2019-05-16T02:03:15.748Z,0.00
2019-05-16T02:04:18.214Z,0.00
2019-05-16T02:05:15.736Z,0.00
2019-05-16T02:06:18.164Z,0.00
2019-05-16T02:07:15.715Z,0.00
2019-05-16T02:08:17.997Z,0.00
2019-05-16T02:09:15.703Z,0.00
2019-05-16T02:10:17.906Z,0.00
2019-05-16T02:11:17.943Z,0.00
2019-05-16T02:12:15.674Z,0.00
2019-05-16T02:13:17.742Z,0.00
2019-05-16T02:14:17.599Z,0.00
2019-05-16T02:15:18.037Z,0.00
2019-05-16T02:16:15.642Z,0.00
2019-05-16T02:17:18.155Z,0.00
2019-05-16T02:18:15.628Z,0.00
2019-05-16T02:19:15.624Z,0.00
2019-05-16T02:20:17.811Z,0.00
2019-05-16T02:21:15.601Z,0.00
2019-05-16T02:22:17.785Z,0.00
2019-05-16T02:23:15.585Z,0.00
2019-05-16T02:24:17.883Z,0.00
2019-05-16T02:25:15.566Z,0.00
2019-05-16T02:26:15.563Z,0.00
2019-05-16T02:27:15.549Z,0.00
2019-05-16T02:28:15.550Z,0.00
2019-05-16T02:29:15.537Z,0.00
2019-05-16T02:30:15.530Z,0.00
2019-05-16T02:31:15.821Z,0.00
2019-05-16T02:32:15.511Z,0.00
2019-05-16T02:33:15.506Z,0.00
2019-05-16T02:34:15.502Z,0.00
2019-05-16T02:35:15.487Z,0.00
2019-05-16T02:36:15.480Z,0.00
2019-05-16T02:37:24.585Z,0.00
2019-05-16T02:38:15.459Z,0.00
2019-05-16T02:39:15.452Z,0.00
2019-05-16T02:40:15.448Z,0.00
2019-05-16T02:41:15.440Z,0.00
2019-05-16T02:42:15.429Z,0.00
2019-05-16T02:43:15.424Z,0.00
2019-05-16T02:44:15.412Z,0.00
2019-05-16T02:45:15.405Z,0.00
2019-05-16T02:46:15.394Z,0.00
2019-05-16T02:47:15.385Z,0.00
2019-05-16T02:48:15.383Z,0.00
2019-05-16T02:49:15.373Z,0.00
2019-05-16T02:50:15.365Z,0.00
2019-05-16T02:51:15.358Z,0.00
2019-05-16T02:52:15.350Z,0.00
2019-05-16T02:53:15.342Z,0.00
2019-05-16T02:54:15.335Z,0.00
2019-05-16T02:55:15.326Z,0.00
2019-05-16T02:56:15.324Z,0.00
2019-05-16T02:57:15.310Z,0.00
2019-05-16T02:58:15.298Z,0.00
2019-05-16T02:59:15.300Z,0.00
2019-05-16T03:00:15.286Z,0.00
2019-05-16T03:01:15.280Z,0.00
2019-05-16T03:02:15.269Z,0.00
2019-05-16T03:03:15.259Z,0.00
2019-05-16T03:04:15.251Z,0.00
2019-05-16T03:05:15.242Z,0.00
2019-05-16T03:06:15.232Z,0.00
2019-05-16T03:07:32.803Z,0.00
2019-05-16T03:08:15.218Z,0.00
2019-05-16T03:09:15.213Z,0.00
2019-05-16T03:10:15.198Z,0.00
2019-05-16T03:11:15.192Z,0.00
2019-05-16T03:12:15.190Z,0.00
2019-05-16T03:13:15.191Z,0.00
2019-05-16T03:14:15.174Z,0.00
2019-05-16T03:15:15.168Z,0.00
2019-05-16T03:16:15.155Z,0.00
2019-05-16T03:17:15.150Z,4.00
2019-05-16T03:18:16.904Z,4.00
2019-05-16T03:19:15.148Z,0.00
2019-05-16T03:20:15.123Z,4.00
2019-05-16T03:21:15.111Z,4.00
2019-05-16T03:22:15.101Z,4.00
2019-05-16T03:23:15.094Z,4.00
2019-05-16T03:24:15.107Z,8.00
2019-05-16T03:25:15.097Z,8.00
2019-05-16T03:26:15.065Z,8.00
2019-05-16T03:27:15.071Z,12.00
2019-05-16T03:28:15.054Z,12.00
2019-05-16T03:29:15.045Z,12.00
2019-05-16T03:30:16.940Z,16.00
2019-05-16T03:31:15.924Z,16.00
2019-05-16T03:32:15.021Z,20.00
2019-05-16T03:33:23.406Z,24.00
2019-05-16T03:34:16.936Z,24.00
2019-05-16T03:35:16.694Z,28.00
2019-05-16T03:36:15.919Z,32.00
2019-05-16T03:37:15.271Z,36.00
2019-05-16T03:38:14.977Z,40.00
2019-05-16T03:39:14.970Z,44.00
2019-05-16T03:40:14.975Z,52.00
2019-05-16T03:41:14.950Z,56.00
2019-05-16T03:42:14.946Z,60.00
2019-05-16T03:43:14.933Z,64.00
2019-05-16T03:44:14.928Z,72.00
2019-05-16T03:45:14.926Z,72.00
2019-05-16T03:46:14.913Z,80.00
2019-05-16T03:47:14.911Z,84.00
2019-05-16T03:48:14.898Z,84.00
2019-05-16T03:49:14.884Z,88.00
2019-05-16T03:50:16.416Z,92.00
2019-05-16T03:51:16.420Z,100.00
2019-05-16T03:52:14.868Z,108.00
2019-05-16T03:53:16.422Z,120.00
2019-05-16T03:54:14.843Z,132.00
2019-05-16T03:55:14.835Z,140.00
2019-05-16T03:56:21.470Z,148.00
2019-05-16T03:57:14.830Z,156.00
2019-05-16T03:58:14.825Z,168.00
2019-05-16T03:59:14.809Z,180.00
2019-05-16T04:00:14.800Z,200.00
2019-05-16T04:01:14.791Z,212.00
2019-05-16T04:02:14.782Z,228.00
2019-05-16T04:03:14.774Z,240.00
2019-05-16T04:04:14.766Z,252.00
2019-05-16T04:05:14.761Z,268.00
2019-05-16T04:06:14.752Z,280.00
2019-05-16T04:07:14.744Z,296.00
2019-05-16T04:08:19.534Z,308.00
2019-05-16T04:09:14.731Z,320.00
2019-05-16T04:10:14.721Z,324.00
2019-05-16T04:11:18.245Z,320.00
2019-05-16T04:12:14.704Z,320.00
2019-05-16T04:13:14.694Z,320.00
2019-05-16T04:14:14.689Z,320.00
2019-05-16T04:15:14.687Z,332.00
2019-05-16T04:16:14.670Z,352.00
2019-05-16T04:17:14.675Z,364.00
2019-05-16T04:18:14.656Z,384.00
2019-05-16T04:19:14.651Z,396.00
2019-05-16T04:20:14.642Z,424.00
2019-05-16T04:21:17.567Z,452.00
2019-05-16T04:22:16.434Z,484.00
2019-05-16T04:23:14.624Z,508.00
2019-05-16T04:24:14.612Z,532.00
2019-05-16T04:25:14.603Z,564.00
2019-05-16T04:26:14.592Z,600.00
2019-05-16T04:27:14.585Z,632.00
2019-05-16T04:28:14.577Z,656.00
2019-05-16T04:29:14.571Z,688.00
2019-05-16T04:30:14.568Z,720.00
2019-05-16T04:31:14.554Z,760.00
2019-05-16T04:32:14.548Z,792.00
2019-05-16T04:33:14.538Z,808.00
2019-05-16T04:34:14.528Z,820.00
2019-05-16T04:35:14.531Z,828.00
2019-05-16T04:36:14.516Z,848.00
2019-05-16T04:37:16.440Z,872.00
2019-05-16T04:38:30.286Z,916.00
2019-05-16T04:39:14.490Z,960.00
2019-05-16T04:40:14.485Z,1004.00
2019-05-16T04:41:14.483Z,1048.00
2019-05-16T04:42:14.479Z,1076.00
2019-05-16T04:43:14.472Z,1084.00
2019-05-16T04:44:14.461Z,1088.00
2019-05-16T04:45:14.452Z,1116.00
2019-05-16T04:46:14.442Z,1104.00
2019-05-16T04:47:14.432Z,1084.00
2019-05-16T04:48:14.426Z,1044.00
2019-05-16T04:49:14.424Z,1032.00
2019-05-16T04:50:15.952Z,1032.00
2019-05-16T04:51:15.070Z,1024.00
2019-05-16T04:52:14.401Z,1020.00
2019-05-16T04:53:14.397Z,1008.00
2019-05-16T04:54:14.382Z,1024.00
2019-05-16T04:55:14.378Z,1040.00
2019-05-16T04:56:14.369Z,1064.00
2019-05-16T04:57:14.361Z,1100.00
2019-05-16T04:58:14.350Z,1140.00
2019-05-16T04:59:16.488Z,1224.00
2019-05-16T05:00:14.339Z,1252.00
2019-05-16T05:01:14.339Z,1256.00
2019-05-16T05:02:14.325Z,1276.00
2019-05-16T05:03:14.320Z,1324.00
2019-05-16T05:04:15.447Z,1368.00
2019-05-16T05:05:14.303Z,1440.00
2019-05-16T05:06:14.293Z,1496.00
2019-05-16T05:07:14.285Z,1548.00
2019-05-16T05:08:14.282Z,1628.00
2019-05-16T05:09:14.276Z,1708.00
2019-05-16T05:10:14.270Z,1816.00
2019-05-16T05:11:14.262Z,1988.00
2019-05-16T05:12:14.251Z,2216.00
2019-05-16T05:13:14.248Z,2244.00
2019-05-16T05:14:14.241Z,2356.00
2019-05-16T05:15:14.237Z,2624.00
2019-05-16T05:16:14.243Z,2836.00
2019-05-16T05:17:14.225Z,3044.00
2019-05-16T05:18:14.216Z,3192.00
2019-05-16T05:19:14.207Z,3192.00
2019-05-16T05:20:14.203Z,3304.00
2019-05-16T05:21:14.194Z,3680.00
2019-05-16T05:22:14.183Z,3784.00
2019-05-16T05:23:14.193Z,4188.00
2019-05-16T05:24:14.181Z,4540.00
2019-05-16T05:25:14.168Z,4528.00
2019-05-16T05:26:14.161Z,4576.00
2019-05-16T05:27:14.160Z,4720.00
2019-05-16T05:28:14.154Z,4936.00
2019-05-16T05:29:14.152Z,5272.00
2019-05-16T05:30:15.982Z,4900.00
2019-05-16T05:31:14.136Z,4344.00
2019-05-16T05:32:14.625Z,4392.00
2019-05-16T05:33:15.976Z,4236.00
2019-05-16T05:34:15.965Z,4148.00
2019-05-16T05:35:14.118Z,4172.00
2019-05-16T05:36:14.114Z,4040.00
2019-05-16T05:37:14.104Z,3580.00
2019-05-16T05:38:14.102Z,3804.00
2019-05-16T05:39:15.586Z,4388.00
2019-05-16T05:40:14.093Z,4600.00
2019-05-16T05:41:14.100Z,4400.00
2019-05-16T05:42:14.090Z,4532.00
2019-05-16T05:43:14.088Z,4512.00
2019-05-16T05:44:14.097Z,3972.00
2019-05-16T05:45:14.075Z,3076.00
2019-05-16T05:46:14.074Z,3192.00
2019-05-16T05:47:14.069Z,2460.00
2019-05-16T05:48:14.069Z,3244.00
2019-05-16T05:49:14.056Z,4336.00
2019-05-16T05:50:14.059Z,4588.00
2019-05-16T05:51:14.054Z,3856.00
2019-05-16T05:52:14.051Z,3984.00
2019-05-16T05:53:14.053Z,2988.00
2019-05-16T05:54:14.051Z,3176.00
2019-05-16T05:55:14.046Z,2972.00
2019-05-16T05:56:14.053Z,3520.00
2019-05-16T05:57:14.036Z,4208.00
2019-05-16T05:58:14.036Z,4252.00
2019-05-16T05:59:14.050Z,4556.00
2019-05-16T06:00:14.033Z,4212.00
2019-05-16T06:01:14.027Z,3892.00
2019-05-16T06:02:14.030Z,4140.00
2019-05-16T06:03:14.017Z,4800.00
2019-05-16T06:04:14.017Z,4856.00
2019-05-16T06:05:14.019Z,5208.00
2019-05-16T06:06:14.014Z,3652.00
2019-05-16T06:07:14.014Z,3596.00
2019-05-16T06:08:14.014Z,3436.00
2019-05-16T06:09:25.402Z,4408.00
2019-05-16T06:10:14.003Z,4476.00
2019-05-16T06:11:14.002Z,5380.00
2019-05-16T06:12:14.002Z,4652.00
2019-05-16T06:13:14.003Z,3336.00
2019-05-16T06:14:14.001Z,2956.00
2019-05-16T06:15:13.995Z,3692.00
2019-05-16T06:16:13.990Z,4164.00
2019-05-16T06:17:13.995Z,5284.00
2019-05-16T06:18:13.995Z,4832.00
2019-05-16T06:19:13.992Z,4360.00
2019-05-16T06:20:14.752Z,5108.00
2019-05-16T06:21:13.990Z,5472.00
2019-05-16T06:22:13.984Z,5648.00
2019-05-16T06:23:13.984Z,5244.00
2019-05-16T06:24:16.177Z,5520.00
2019-05-16T06:25:14.123Z,5700.00
2019-05-16T06:26:13.984Z,5844.00
2019-05-16T06:27:13.982Z,6036.00
2019-05-16T06:28:13.981Z,5752.00
2019-05-16T06:29:13.977Z,6128.00
2019-05-16T06:30:13.978Z,6944.00
2019-05-16T06:31:14.582Z,7504.00
2019-05-16T06:32:13.978Z,6652.00
2019-05-16T06:33:13.975Z,6496.00
2019-05-16T06:34:15.330Z,6384.00
2019-05-16T06:35:13.973Z,5860.00
2019-05-16T06:36:13.974Z,5668.00
2019-05-16T06:37:13.979Z,4980.00
2019-05-16T06:38:13.981Z,4904.00
2019-05-16T06:39:13.989Z,4680.00
2019-05-16T06:40:13.976Z,4124.00
2019-05-16T06:41:13.975Z,4504.00
2019-05-16T06:42:13.978Z,4260.00
2019-05-16T06:43:13.974Z,4340.00
2019-05-16T06:44:13.977Z,4540.00
2019-05-16T06:45:13.985Z,4548.00
2019-05-16T06:46:13.982Z,4456.00
2019-05-16T06:47:19.725Z,4504.00
2019-05-16T06:48:13.977Z,4436.00
2019-05-16T06:49:13.981Z,4480.00
2019-05-16T06:50:13.985Z,4256.00
2019-05-16T06:51:13.982Z,4784.00
2019-05-16T06:52:13.984Z,3440.00
2019-05-16T06:53:13.988Z,3280.00
2019-05-16T06:54:13.983Z,3816.00
2019-05-16T06:55:13.983Z,3968.00
2019-05-16T06:56:13.979Z,3856.00
2019-05-16T06:57:13.984Z,4004.00
2019-05-16T06:58:13.980Z,3672.00
2019-05-16T06:59:13.983Z,3736.00
2019-05-16T07:00:13.981Z,3964.00
2019-05-16T07:01:13.984Z,3796.00
2019-05-16T07:02:26.569Z,3888.00
2019-05-16T07:03:13.976Z,4004.00
2019-05-16T07:04:13.991Z,4172.00
2019-05-16T07:05:13.971Z,4240.00
2019-05-16T07:06:29.890Z,4320.00
2019-05-16T07:07:13.965Z,4412.00
2019-05-16T07:08:14.530Z,4580.00
2019-05-16T07:09:13.970Z,4712.00
2019-05-16T07:10:13.966Z,4664.00
2019-05-16T07:11:13.969Z,4544.00
2019-05-16T07:12:13.967Z,4428.00
2019-05-16T07:13:15.472Z,4212.00
2019-05-16T07:14:13.958Z,3884.00
2019-05-16T07:15:13.954Z,3508.00
2019-05-16T07:16:13.950Z,3220.00
2019-05-16T07:17:13.950Z,3116.00
2019-05-16T07:18:13.955Z,3020.00
2019-05-16T07:19:13.945Z,2936.00
2019-05-16T07:20:13.939Z,2804.00
2019-05-16T07:21:13.941Z,2764.00
2019-05-16T07:22:13.950Z,2688.00
2019-05-16T07:23:13.933Z,2700.00
2019-05-16T07:24:16.592Z,3000.00
2019-05-16T07:25:13.923Z,3704.00
2019-05-16T07:26:13.920Z,4580.00
2019-05-16T07:27:13.916Z,5420.00
2019-05-16T07:28:13.939Z,6364.00
2019-05-16T07:29:13.913Z,7116.00
2019-05-16T07:30:13.913Z,7768.00
2019-05-16T07:31:17.875Z,7976.00
2019-05-16T07:32:13.901Z,7900.00
2019-05-16T07:33:13.910Z,7596.00
2019-05-16T07:34:14.646Z,7256.00
2019-05-16T07:35:13.890Z,7040.00
2019-05-16T07:36:15.929Z,6724.00
2019-05-16T07:37:13.881Z,6548.00
2019-05-16T07:38:13.877Z,6544.00
2019-05-16T07:39:13.873Z,6604.00
2019-05-16T07:40:20.038Z,6652.00
2019-05-16T07:41:14.206Z,6484.00
2019-05-16T07:42:13.866Z,6300.00
2019-05-16T07:43:13.862Z,6312.00
2019-05-16T07:44:13.860Z,6540.00
2019-05-16T07:45:13.852Z,6700.00
2019-05-16T07:46:13.857Z,6972.00
2019-05-16T07:47:13.851Z,7288.00
2019-05-16T07:48:13.843Z,7668.00
2019-05-16T07:49:13.842Z,8096.00
2019-05-16T07:50:13.836Z,8352.00
2019-05-16T07:51:13.832Z,8100.00
2019-05-16T07:52:13.830Z,7548.00
2019-05-16T07:53:13.830Z,7088.00
2019-05-16T07:54:13.831Z,6444.00
2019-05-16T07:55:13.823Z,6160.00
2019-05-16T07:56:13.827Z,6256.00
2019-05-16T07:57:19.346Z,6500.00
2019-05-16T07:58:13.812Z,6748.00
2019-05-16T07:59:13.812Z,6900.00
2019-05-16T08:00:13.804Z,6592.00
2019-05-16T08:01:13.816Z,6564.00
2019-05-16T08:02:13.808Z,6912.00
2019-05-16T08:03:13.804Z,7024.00
2019-05-16T08:04:13.804Z,6932.00
2019-05-16T08:05:17.548Z,6828.00
2019-05-16T08:06:13.810Z,6608.00
2019-05-16T08:07:13.795Z,6656.00
2019-05-16T08:08:13.801Z,6588.00
2019-05-16T08:09:13.786Z,6600.00
2019-05-16T08:10:13.795Z,6532.00
2019-05-16T08:11:15.552Z,6388.00
2019-05-16T08:12:13.783Z,6184.00
2019-05-16T08:13:17.460Z,6188.00
2019-05-16T08:14:13.781Z,6528.00
2019-05-16T08:15:13.775Z,7080.00
2019-05-16T08:16:13.775Z,7560.00
2019-05-16T08:17:15.555Z,7532.00
2019-05-16T08:18:13.762Z,7024.00
2019-05-16T08:19:13.762Z,6488.00
2019-05-16T08:20:13.763Z,6148.00
2019-05-16T08:21:16.905Z,6216.00
2019-05-16T08:22:13.759Z,6512.00
2019-05-16T08:23:13.750Z,6800.00
2019-05-16T08:24:15.119Z,6664.00
2019-05-16T08:25:13.748Z,6268.00
2019-05-16T08:26:13.745Z,6084.00
2019-05-16T08:27:13.742Z,6132.00
2019-05-16T08:28:13.788Z,6160.00
2019-05-16T08:29:13.792Z,6020.00
2019-05-16T08:30:13.749Z,5836.00
2019-05-16T08:31:13.729Z,5828.00
2019-05-16T08:32:13.726Z,6260.00
2019-05-16T08:33:13.822Z,6784.00
2019-05-16T08:34:15.583Z,7048.00
2019-05-16T08:35:13.731Z,6776.00
2019-05-16T08:36:13.718Z,6708.00
2019-05-16T08:37:36.320Z,7040.00
2019-05-16T08:38:13.753Z,7504.00
2019-05-16T08:39:13.707Z,8132.00
2019-05-16T08:40:13.707Z,8524.00
2019-05-16T08:41:17.108Z,8576.00
2019-05-16T08:42:13.694Z,8188.00
2019-05-16T08:43:13.691Z,7952.00
2019-05-16T08:44:13.689Z,7716.00
2019-05-16T08:45:13.687Z,7468.00
2019-05-16T08:46:13.685Z,7164.00
2019-05-16T08:47:13.683Z,7044.00
2019-05-16T08:48:13.678Z,7044.00
2019-05-16T08:49:13.675Z,7388.00
2019-05-16T08:51:13.666Z,7612.00
2019-05-16T08:52:13.757Z,7052.00
2019-05-16T08:53:13.937Z,6888.00
2019-05-16T08:54:13.754Z,7632.00
2019-05-16T08:55:13.821Z,8968.00
2019-05-16T08:56:13.649Z,9704.00
2019-05-16T08:57:26.124Z,8876.00
2019-05-16T08:58:13.769Z,7500.00
2019-05-16T08:59:13.723Z,6968.00
2019-05-16T09:01:14.955Z,7348.00
2019-05-16T09:02:13.623Z,7428.00
2019-05-16T09:03:13.639Z,7796.00
2019-05-16T09:04:13.629Z,8264.00
2019-05-16T09:05:14.118Z,8168.00
2019-05-16T09:06:13.625Z,8112.00
2019-05-16T09:07:13.620Z,8116.00
2019-05-16T09:08:13.619Z,8008.00
2019-05-16T09:10:35.700Z,7860.00
2019-05-16T09:10:45.770Z,7632.00
2019-05-16T09:11:29.360Z,7352.00
2019-05-16T09:12:17.198Z,7136.00
2019-05-16T09:13:13.649Z,6992.00
2019-05-16T09:14:13.596Z,6544.00
2019-05-16T09:15:13.595Z,5988.00
2019-05-16T09:16:13.591Z,5684.00
2019-05-16T09:17:13.593Z,5560.00
2019-05-16T09:18:13.590Z,5656.00
2019-05-16T09:18:30.895Z,7376.00
2019-05-16T09:18:32.827Z,7664.00
2019-05-16T09:19:13.587Z,5964.00
2019-05-16T09:20:13.583Z,6916.00
2019-05-16T09:21:13.576Z,8044.00
2019-05-16T09:22:13.573Z,8980.00
2019-05-16T09:23:13.572Z,8840.00
2019-05-16T09:24:13.573Z,8484.00
2019-05-16T09:25:13.567Z,8508.00
2019-05-16T09:26:16.990Z,8928.00
2019-05-16T09:27:13.604Z,9012.00
2019-05-16T09:28:13.555Z,9028.00
2019-05-16T09:29:13.554Z,8716.00
2019-05-16T09:30:13.553Z,8444.00
2019-05-16T09:31:13.594Z,8400.00
2019-05-16T09:32:17.875Z,8204.00
2019-05-16T09:33:13.542Z,8040.00
2019-05-16T09:34:13.566Z,7644.00
2019-05-16T09:35:13.535Z,7200.00
2019-05-16T09:36:13.532Z,6932.00
2019-05-16T09:37:13.538Z,7228.00
2019-05-16T09:38:13.529Z,7740.00
2019-05-16T09:39:13.529Z,8056.00
2019-05-16T09:40:13.528Z,8444.00
2019-05-16T09:41:13.523Z,8568.00
2019-05-16T09:42:13.518Z,8308.00
2019-05-16T09:43:13.519Z,8000.00
2019-05-16T09:44:13.535Z,8032.00
2019-05-16T09:45:13.512Z,8560.00
2019-05-16T09:46:13.507Z,8968.00
2019-05-16T09:47:13.506Z,9260.00
2019-05-16T09:48:13.504Z,9384.00
2019-05-16T09:49:22.706Z,8596.00
2019-05-16T09:50:13.504Z,7512.00
2019-05-16T09:51:13.499Z,6752.00
2019-05-16T09:52:13.497Z,6328.00
2019-05-16T09:53:13.491Z,6612.00
2019-05-16T09:54:13.494Z,7424.00
2019-05-16T09:55:13.485Z,8116.00
2019-05-16T09:56:13.486Z,8960.00
2019-05-16T09:57:13.485Z,10232.00
2019-05-16T09:58:13.482Z,10696.00
2019-05-16T09:59:13.475Z,10764.00
2019-05-16T10:00:13.476Z,10672.00
2019-05-16T10:01:13.475Z,10260.00
2019-05-16T10:02:13.474Z,9852.00
2019-05-16T10:03:13.471Z,9720.00
2019-05-16T10:04:13.472Z,9896.00
2019-05-16T10:05:13.834Z,10180.00
2019-05-16T10:06:13.463Z,10112.00
2019-05-16T10:07:13.458Z,9860.00
2019-05-16T10:08:13.461Z,9492.00
2019-05-16T10:09:13.460Z,9572.00
2019-05-16T10:10:13.469Z,9852.00
2019-05-16T10:11:13.455Z,9932.00
2019-05-16T10:12:15.434Z,9920.00
2019-05-16T10:13:13.448Z,9864.00
2019-05-16T10:14:13.445Z,10232.00
2019-05-16T10:15:13.446Z,10816.00
2019-05-16T10:16:13.447Z,10768.00
2019-05-16T10:17:13.438Z,11008.00
2019-05-16T10:18:13.438Z,10924.00
2019-05-16T10:19:13.442Z,10672.00
2019-05-16T10:20:13.435Z,10816.00
2019-05-16T10:21:17.781Z,10744.00
2019-05-16T10:22:13.436Z,10076.00
2019-05-16T10:23:14.965Z,10268.00
2019-05-16T10:24:13.435Z,11120.00
2019-05-16T10:25:13.429Z,11384.00
2019-05-16T10:26:13.430Z,10916.00
2019-05-16T10:27:13.426Z,10180.00
2019-05-16T10:28:13.424Z,10112.00
2019-05-16T10:29:13.428Z,9728.00
2019-05-16T10:30:13.428Z,9516.00
2019-05-16T10:31:13.422Z,9588.00
2019-05-16T10:32:13.426Z,8972.00
2019-05-16T10:33:13.533Z,8588.00
2019-05-16T10:34:13.423Z,8856.00
2019-05-16T10:35:13.420Z,9168.00
2019-05-16T10:36:13.435Z,9840.00
2019-05-16T10:37:13.416Z,10752.00
2019-05-16T10:38:13.423Z,10952.00
2019-05-16T10:39:13.414Z,10368.00
2019-05-16T10:40:13.416Z,10228.00
2019-05-16T10:41:13.416Z,10572.00
2019-05-16T10:42:24.892Z,10372.00
2019-05-16T10:43:13.421Z,10080.00
2019-05-16T10:44:13.415Z,9544.00
2019-05-16T10:45:13.411Z,9636.00
2019-05-16T10:46:13.412Z,9876.00
2019-05-16T10:47:13.414Z,9904.00
2019-05-16T10:48:13.413Z,9376.00
2019-05-16T10:49:13.410Z,8852.00
2019-05-16T10:50:13.407Z,8912.00
2019-05-16T10:51:13.410Z,9484.00
2019-05-16T10:52:13.407Z,10072.00
2019-05-16T10:53:32.478Z,10404.00
2019-05-16T10:54:14.394Z,10468.00
2019-05-16T10:55:13.443Z,10288.00
2019-05-16T10:56:13.443Z,10264.00
2019-05-16T10:57:13.453Z,10064.00
2019-05-16T10:58:13.405Z,9508.00
2019-05-16T10:59:53.161Z,8772.00
2019-05-16T11:00:34.950Z,8604.00
2019-05-16T11:01:24.291Z,8748.00
2019-05-16T11:02:13.506Z,8496.00
2019-05-16T11:03:13.405Z,7816.00
2019-05-16T11:04:27.954Z,7492.00
2019-05-16T11:05:29.372Z,7968.00
2019-05-16T11:06:24.742Z,8924.00
2019-05-16T11:07:13.406Z,9268.00
2019-05-16T11:08:13.456Z,9396.00
2019-05-16T11:09:13.403Z,9960.00
2019-05-16T11:10:13.406Z,10268.00
2019-05-16T11:11:13.402Z,10140.00
2019-05-16T11:12:13.404Z,9796.00
2019-05-16T11:13:13.406Z,9236.00
2019-05-16T11:14:13.406Z,8652.00
2019-05-16T11:15:13.403Z,8468.00
2019-05-16T11:16:13.405Z,7912.00
2019-05-16T11:17:18.807Z,7232.00
2019-05-16T11:18:13.400Z,6816.00
2019-05-16T11:19:18.292Z,6788.00
2019-05-16T11:20:13.463Z,6780.00
2019-05-16T11:21:13.399Z,7256.00
2019-05-16T11:22:13.401Z,7420.00
2019-05-16T11:23:13.397Z,7440.00
2019-05-16T11:24:13.608Z,7536.00
2019-05-16T11:25:24.186Z,7420.00
2019-05-16T11:26:13.406Z,6852.00
2019-05-16T11:27:13.400Z,6168.00
2019-05-16T11:28:13.444Z,5572.00
2019-05-16T11:29:13.399Z,5300.00
2019-05-16T11:30:17.841Z,5296.00
2019-05-16T11:31:13.412Z,5328.00
2019-05-16T11:32:13.397Z,5148.00
2019-05-16T11:33:13.423Z,4636.00
2019-05-16T11:34:13.404Z,3920.00
2019-05-16T11:35:13.396Z,3264.00
2019-05-16T11:36:13.400Z,2788.00
2019-05-16T11:37:13.393Z,2732.00
2019-05-16T11:38:13.456Z,2796.00
2019-05-16T11:39:13.409Z,2924.00
2019-05-16T11:40:13.393Z,3100.00
2019-05-16T11:41:13.389Z,3264.00
2019-05-16T11:42:13.387Z,3604.00
2019-05-16T11:43:18.230Z,4316.00
2019-05-16T11:44:13.385Z,4776.00
2019-05-16T11:45:13.390Z,4720.00
2019-05-16T11:46:15.213Z,4800.00
2019-05-16T11:47:13.386Z,4628.00
2019-05-16T11:48:13.392Z,3952.00
2019-05-16T11:49:13.376Z,3116.00
2019-05-16T11:50:13.373Z,2392.00
2019-05-16T11:51:13.381Z,2180.00
2019-05-16T11:52:13.375Z,2280.00
2019-05-16T11:53:13.374Z,2488.00
2019-05-16T11:54:13.364Z,2408.00
2019-05-16T11:55:13.366Z,2184.00
2019-05-16T11:56:13.369Z,2288.00
2019-05-16T11:57:13.367Z,2272.00
2019-05-16T11:58:13.361Z,2104.00
2019-05-16T11:59:13.361Z,2024.00
2019-05-16T12:00:13.361Z,2020.00
2019-05-16T12:01:13.362Z,2000.00
2019-05-16T12:02:13.351Z,1972.00
2019-05-16T12:03:13.343Z,1976.00
2019-05-16T12:04:13.348Z,2024.00
2019-05-16T12:05:13.351Z,2060.00
2019-05-16T12:06:13.345Z,1992.00
2019-05-16T12:07:13.338Z,2012.00
2019-05-16T12:08:13.336Z,1984.00
2019-05-16T12:09:13.335Z,2036.00
2019-05-16T12:10:13.342Z,2124.00
2019-05-16T12:11:13.332Z,2060.00
2019-05-16T12:12:13.332Z,1952.00
2019-05-16T12:13:25.200Z,1940.00
2019-05-16T12:14:13.317Z,1928.00
2019-05-16T12:15:16.565Z,1928.00
2019-05-16T12:16:15.309Z,1920.00
2019-05-16T12:17:13.315Z,1896.00
2019-05-16T12:18:17.316Z,1884.00
2019-05-16T12:19:13.307Z,1876.00
2019-05-16T12:20:13.306Z,1880.00
2019-05-16T12:21:13.305Z,1920.00
2019-05-16T12:22:13.294Z,1972.00
2019-05-16T12:23:13.297Z,2016.00
2019-05-16T12:24:29.091Z,2032.00
2019-05-16T12:25:13.287Z,2064.00
2019-05-16T12:26:13.288Z,2104.00